Time;durP1;ratioP1;P1;durP2;ratioP2;P2;SDS_P1;SDS_P2;PMS_P1;PMS_P2;Temp;Humidity;BMP_temperature;BMP_pressure;BME280_temperature;BME280_humidity;BME280_pressure;Samples;Min_cycle;Max_cycle;Signal;HPM_P1;HPM_P2
2023/07/28 00:01:39;;;;;;;1.27;1.27;;;17.30;99.90;;;;;;4180613;28;20363;-55
2023/07/28 00:03:59;;;;;;;2.10;1.10;;;17.40;99.90;;;;;;4183044;28;20106;-54
2023/07/28 00:06:19;;;;;;;1.10;1.00;;;17.30;99.90;;;;;;4182656;28;20099;-54
2023/07/28 00:08:40;;;;;;;2.65;1.15;;;17.20;99.90;;;;;;4181459;28;20259;-54
2023/07/28 00:11:00;;;;;;;1.35;1.13;;;17.10;99.90;;;;;;4180858;28;20363;-55
2023/07/28 00:13:19;;;;;;;1.40;1.00;;;17.10;99.90;;;;;;4180357;28;20068;-54
2023/07/28 00:15:39;;;;;;;1.00;1.00;;;17.00;99.90;;;;;;4179752;28;20296;-54
2023/07/28 00:18:01;;;;;;;0.88;0.88;;;16.90;99.90;;;;;;4180422;28;20300;-54
2023/07/28 00:20:21;;;;;;;0.90;0.90;;;17.00;99.90;;;;;;4186821;28;20083;-54
2023/07/28 00:22:41;;;;;;;2.15;0.90;;;16.70;99.90;;;;;;4178634;28;20113;-54
2023/07/28 00:25:01;;;;;;;0.90;0.90;;;16.70;99.90;;;;;;4180698;28;20052;-54
2023/07/28 00:27:21;;;;;;;1.00;1.00;;;16.80;99.90;;;;;;4182018;28;20359;-54
2023/07/28 00:29:41;;;;;;;3.00;1.25;;;16.50;99.90;;;;;;4181106;28;20064;-54
2023/07/28 00:32:01;;;;;;;1.00;1.00;;;16.60;99.90;;;;;;4182340;28;20063;-54
2023/07/28 00:34:22;;;;;;;3.35;1.30;;;16.80;99.90;;;;;;4181790;28;20056;-54
2023/07/28 00:36:41;;;;;;;2.15;1.20;;;16.90;99.90;;;;;;4181820;28;20090;-54
2023/07/28 00:39:03;;;;;;;1.27;1.15;;;16.80;99.90;;;;;;4180379;28;20115;-54
2023/07/28 00:41:23;;;;;;;2.00;1.00;;;16.70;99.90;;;;;;4177662;28;20056;-54
2023/07/28 00:43:43;;;;;;;3.33;0.93;;;16.50;99.90;;;;;;4182674;28;20331;-54
2023/07/28 00:46:04;;;;;;;1.58;1.10;;;16.50;99.90;;;;;;4179869;28;20086;-54
2023/07/28 00:48:25;;;;;;;1.75;1.00;;;16.40;99.90;;;;;;4177356;28;20087;-55
2023/07/28 00:50:48;;;;;;;1.35;0.90;;;16.40;99.90;;;;;;4180809;28;20082;-54
2023/07/28 00:53:08;;;;;;;1.70;0.95;;;16.40;99.90;;;;;;4179596;28;20121;-54
2023/07/28 00:55:28;;;;;;;1.33;0.95;;;16.40;99.90;;;;;;4179348;28;20084;-54
2023/07/28 00:57:48;;;;;;;1.42;0.90;;;16.40;99.90;;;;;;4180728;28;20049;-55
2023/07/28 01:00:10;;;;;;;3.22;1.63;;;16.40;99.90;;;;;;4182687;28;20275;-54
2023/07/28 01:02:30;;;;;;;1.02;1.00;;;16.10;99.90;;;;;;4181592;28;20394;-54
2023/07/28 01:04:50;;;;;;;1.63;1.10;;;16.10;99.90;;;;;;4180919;28;20111;-54
2023/07/28 01:07:20;;;;;;;1.13;1.13;;;16.20;99.90;;;;;;4180385;28;20064;-54
2023/07/28 01:09:55;;;;;;;1.10;1.10;;;16.10;99.90;;;;;;4180873;28;20092;-54
2023/07/28 01:12:15;;;;;;;0.95;0.95;;;16.20;99.90;;;;;;4180412;28;20049;-55
2023/07/28 01:14:34;;;;;;;1.30;1.20;;;16.10;99.90;;;;;;4178939;28;20116;-54
2023/07/28 01:16:54;;;;;;;1.00;0.90;;;15.90;99.90;;;;;;4181868;28;20139;-54
2023/07/28 01:19:18;;;;;;;1.27;1.10;;;15.80;99.90;;;;;;4180436;28;20063;-54
2023/07/28 01:21:43;;;;;;;1.10;1.10;;;15.70;99.90;;;;;;4176212;28;20275;-54
2023/07/28 01:24:14;;;;;;;1.05;0.95;;;15.50;99.90;;;;;;4179092;28;20120;-55
2023/07/28 01:26:39;;;;;;;1.10;1.05;;;15.60;99.90;;;;;;4182615;28;20083;-54
2023/07/28 01:29:00;;;;;;;1.67;1.30;;;15.60;99.90;;;;;;4181571;28;20068;-54
2023/07/28 01:31:20;;;;;;;1.00;1.00;;;15.50;99.90;;;;;;4181655;28;20048;-55
2023/07/28 01:33:40;;;;;;;0.90;0.90;;;15.20;99.90;;;;;;4180313;28;20148;-54
2023/07/28 01:36:00;;;;;;;1.25;1.00;;;15.30;99.90;;;;;;4181120;28;20055;-54
2023/07/28 01:38:21;;;;;;;1.10;1.10;;;15.40;99.90;;;;;;4179346;28;20048;-54
2023/07/28 01:40:40;;;;;;;1.00;1.00;;;15.50;99.90;;;;;;4178341;28;20272;-55
2023/07/28 01:43:00;;;;;;;1.05;1.00;;;15.40;99.90;;;;;;4179976;28;20239;-54
2023/07/28 01:45:20;;;;;;;0.90;0.90;;;15.40;99.90;;;;;;4180609;28;20060;-54
2023/07/28 01:47:40;;;;;;;1.30;1.10;;;15.50;99.90;;;;;;4177136;28;20071;-54
2023/07/28 01:50:01;;;;;;;2.28;2.17;;;15.60;99.90;;;;;;4180544;28;20055;-54
2023/07/28 01:52:22;;;;;;;1.85;1.00;;;15.30;99.90;;;;;;4180954;28;20056;-53
2023/07/28 01:54:42;;;;;;;1.02;1.02;;;15.20;99.90;;;;;;4179975;28;20267;-55
2023/07/28 01:57:02;;;;;;;1.63;1.25;;;15.10;99.90;;;;;;4179907;28;20260;-54
2023/07/28 01:59:22;;;;;;;1.00;1.00;;;15.00;99.90;;;;;;4180214;28;20055;-54
2023/07/28 02:01:43;;;;;;;1.00;1.00;;;15.00;99.90;;;;;;4180925;28;20083;-54
2023/07/28 02:04:02;;;;;;;2.15;1.00;;;15.10;99.90;;;;;;4180561;28;20087;-54
2023/07/28 02:06:23;;;;;;;1.65;1.55;;;15.00;99.90;;;;;;4180795;28;20080;-54
2023/07/28 02:08:43;;;;;;;1.00;1.00;;;15.00;99.90;;;;;;4184703;28;20363;-55
2023/07/28 02:11:02;;;;;;;1.02;1.02;;;14.90;99.90;;;;;;4177746;28;20056;-54
2023/07/28 02:13:22;;;;;;;1.38;0.90;;;15.00;99.90;;;;;;4179850;28;20272;-54
2023/07/28 02:15:42;;;;;;;2.15;1.27;;;15.00;99.90;;;;;;4180394;28;20076;-54
2023/07/28 02:18:02;;;;;;;1.10;1.10;;;14.90;99.90;;;;;;4178650;28;20052;-54
2023/07/28 02:20:22;;;;;;;2.15;1.10;;;15.00;99.90;;;;;;4176962;28;20416;-54
2023/07/28 02:22:43;;;;;;;1.25;1.15;;;15.00;99.90;;;;;;4178329;28;20095;-54
2023/07/28 02:25:03;;;;;;;1.40;1.20;;;14.80;99.90;;;;;;4172853;28;20152;-54
2023/07/28 02:27:23;;;;;;;4.40;1.42;;;14.90;99.90;;;;;;4180963;28;20362;-54
2023/07/28 02:29:43;;;;;;;1.30;1.20;;;14.80;99.90;;;;;;4180305;28;20106;-54
2023/07/28 02:32:03;;;;;;;2.78;1.40;;;14.80;99.90;;;;;;4180693;28;20091;-54
2023/07/28 02:34:24;;;;;;;1.20;1.20;;;14.90;99.90;;;;;;4182243;28;20044;-54
2023/07/28 02:36:44;;;;;;;2.35;1.25;;;14.60;99.90;;;;;;4179404;28;20106;-54
2023/07/28 02:39:03;;;;;;;1.40;1.30;;;14.40;99.90;;;;;;4177389;28;20068;-54
2023/07/28 02:41:23;;;;;;;1.23;1.13;;;14.50;99.90;;;;;;4181658;28;20240;-54
2023/07/28 02:43:43;;;;;;;1.10;1.10;;;14.70;99.90;;;;;;4179074;28;20236;-54
2023/07/28 02:46:03;;;;;;;1.67;1.67;;;14.70;99.90;;;;;;4175899;28;20327;-54
2023/07/28 02:48:23;;;;;;;1.95;1.60;;;14.50;99.90;;;;;;4180356;28;20053;-54
2023/07/28 02:50:47;;;;;;;1.33;1.20;;;14.20;99.90;;;;;;4184533;28;20048;-54
2023/07/28 02:53:07;;;;;;;1.15;1.15;;;14.00;99.90;;;;;;4182211;28;20055;-54
2023/07/28 02:55:26;;;;;;;3.15;1.10;;;13.90;99.90;;;;;;4179123;28;20060;-54
2023/07/28 02:57:46;;;;;;;1.23;1.23;;;13.90;99.90;;;;;;4180107;28;20109;-54
2023/07/28 03:00:10;;;;;;;1.10;1.10;;;13.90;99.90;;;;;;4180686;28;20051;-55
2023/07/28 03:02:30;;;;;;;1.20;1.20;;;13.80;99.90;;;;;;4179825;28;20299;-54
2023/07/28 03:04:50;;;;;;;1.92;1.83;;;13.90;99.90;;;;;;4179063;28;20076;-54
2023/07/28 03:07:10;;;;;;;1.10;1.10;;;13.90;99.90;;;;;;4177435;28;20049;-53
2023/07/28 03:09:30;;;;;;;2.05;1.42;;;14.00;99.90;;;;;;4177852;28;20052;-53
2023/07/28 03:11:50;;;;;;;1.33;1.30;;;13.90;99.90;;;;;;4168623;28;20045;-54
2023/07/28 03:14:12;;;;;;;1.10;1.10;;;14.00;99.90;;;;;;4181022;28;20091;-54
2023/07/28 03:16:32;;;;;;;1.33;1.30;;;14.00;99.90;;;;;;4183369;28;20144;-54
2023/07/28 03:18:53;;;;;;;1.73;1.73;;;13.60;99.90;;;;;;4181705;28;20048;-54
2023/07/28 03:21:13;;;;;;;1.63;1.52;;;13.60;99.90;;;;;;4182455;28;20080;-53
2023/07/28 03:23:33;;;;;;;1.08;1.08;;;13.90;99.90;;;;;;4181562;28;20390;-53
2023/07/28 03:25:52;;;;;;;1.00;1.00;;;13.90;99.90;;;;;;4182330;28;20040;-54
2023/07/28 03:28:12;;;;;;;1.85;1.10;;;13.90;99.90;;;;;;4175160;28;20048;-53
2023/07/28 03:30:32;;;;;;;1.67;1.00;;;14.00;99.90;;;;;;4182163;28;20048;-54
2023/07/28 03:32:52;;;;;;;1.10;1.10;;;14.00;99.90;;;;;;4181452;28;20082;-53
2023/07/28 03:35:13;;;;;;;1.65;1.10;;;14.00;99.90;;;;;;4180722;28;20079;-54
2023/07/28 03:37:33;;;;;;;1.55;1.30;;;13.90;99.90;;;;;;4179789;28;20240;-55
2023/07/28 03:39:53;;;;;;;2.35;1.20;;;13.90;99.90;;;;;;4183898;28;20083;-54
2023/07/28 03:42:15;;;;;;;1.30;1.20;;;13.90;99.90;;;;;;4179470;28;20092;-54
2023/07/28 03:44:37;;;;;;;1.00;1.00;;;13.90;99.90;;;;;;4179305;28;20045;-54
2023/07/28 03:46:57;;;;;;;1.27;1.17;;;13.80;99.90;;;;;;4182584;28;20044;-54
2023/07/28 03:49:17;;;;;;;1.75;1.70;;;13.70;99.90;;;;;;4181666;28;20048;-54
2023/07/28 03:51:37;;;;;;;3.80;1.00;;;13.60;99.90;;;;;;4180205;28;20271;-54
2023/07/28 03:53:57;;;;;;;1.10;1.10;;;13.70;99.90;;;;;;4180587;28;20271;-54
2023/07/28 03:56:16;;;;;;;1.67;1.67;;;13.50;99.90;;;;;;4183241;28;20115;-53
2023/07/28 03:58:36;;;;;;;1.80;1.70;;;13.10;99.90;;;;;;4182616;28;20378;-53
2023/07/28 04:00:56;;;;;;;1.40;1.30;;;13.00;99.90;;;;;;4182151;28;20053;-54
2023/07/28 04:03:16;;;;;;;1.50;1.40;;;13.20;99.90;;;;;;4174701;28;20063;-54
2023/07/28 04:05:36;;;;;;;1.30;1.30;;;13.30;99.90;;;;;;4183499;28;20244;-54
2023/07/28 04:07:57;;;;;;;5.50;1.80;;;13.40;99.90;;;;;;4174577;28;20056;-54
2023/07/28 04:10:18;;;;;;;1.23;1.20;;;13.50;99.90;;;;;;4178350;28;20106;-54
2023/07/28 04:12:38;;;;;;;1.33;1.23;;;13.60;99.90;;;;;;4182673;28;20049;-53
2023/07/28 04:14:58;;;;;;;1.13;1.13;;;13.70;99.90;;;;;;4182307;28;20063;-54
2023/07/28 04:17:18;;;;;;;1.70;1.40;;;13.50;99.90;;;;;;4176586;28;20086;-57
2023/07/28 04:19:37;;;;;;;1.70;1.60;;;13.20;99.90;;;;;;4180917;28;20091;-57
2023/07/28 04:21:57;;;;;;;1.98;1.20;;;13.30;99.90;;;;;;4182623;28;20051;-57
2023/07/28 04:24:17;;;;;;;2.17;1.10;;;13.50;99.90;;;;;;4182082;28;20131;-58
2023/07/28 04:26:38;;;;;;;1.80;1.73;;;13.40;99.90;;;;;;4182283;28;20047;-57
2023/07/28 04:28:58;;;;;;;2.58;1.27;;;13.20;99.90;;;;;;4180880;28;20047;-58
2023/07/28 04:31:17;;;;;;;1.35;1.35;;;13.10;99.90;;;;;;4179798;28;20276;-58
2023/07/28 04:33:41;;;;;;;2.45;1.27;;;13.10;99.90;;;;;;4180086;28;20049;-58
2023/07/28 04:36:02;;;;;;;1.30;1.30;;;13.00;99.90;;;;;;4178866;28;20104;-58
2023/07/28 04:38:23;;;;;;;2.10;2.03;;;12.90;99.90;;;;;;4180284;28;20117;-58
2023/07/28 04:40:42;;;;;;;1.60;1.60;;;12.90;99.90;;;;;;4185293;28;20095;-57
2023/07/28 04:43:02;;;;;;;1.38;1.38;;;13.00;99.90;;;;;;4174284;28;20052;-58
2023/07/28 04:45:23;;;;;;;1.95;1.48;;;12.80;99.90;;;;;;4179249;28;20045;-57
2023/07/28 04:47:43;;;;;;;1.85;1.75;;;13.10;99.90;;;;;;4181624;28;20044;-58
2023/07/28 04:50:03;;;;;;;1.30;1.30;;;13.20;99.90;;;;;;4181322;28;20236;-57
2023/07/28 04:52:23;;;;;;;1.20;1.20;;;13.00;99.90;;;;;;4182571;28;20048;-57
2023/07/28 04:54:43;;;;;;;1.10;1.10;;;13.30;99.90;;;;;;4182315;28;20111;-57
2023/07/28 04:57:03;;;;;;;1.25;1.05;;;13.30;99.90;;;;;;4181776;28;20363;-57
2023/07/28 04:59:23;;;;;;;1.30;1.30;;;13.40;99.90;;;;;;4167930;28;20372;-57
2023/07/28 05:01:43;;;;;;;1.50;1.23;;;13.30;99.90;;;;;;4179239;28;20090;-57
2023/07/28 05:04:03;;;;;;;1.48;1.38;;;13.40;99.90;;;;;;4181952;28;20051;-57
2023/07/28 05:06:23;;;;;;;1.38;1.38;;;13.40;99.90;;;;;;4180433;28;20083;-57
2023/07/28 05:08:43;;;;;;;1.30;1.15;;;13.40;99.90;;;;;;4178015;28;20401;-58
2023/07/28 05:11:02;;;;;;;2.08;1.88;;;13.40;99.90;;;;;;4180556;28;20076;-58
2023/07/28 05:13:22;;;;;;;5.57;2.10;;;13.70;99.90;;;;;;4180181;28;20056;-58
2023/07/28 05:15:42;;;;;;;2.70;1.33;;;13.60;99.90;;;;;;4179470;28;20252;-58
2023/07/28 05:18:02;;;;;;;2.05;1.30;;;13.50;99.90;;;;;;4179727;28;20051;-58
2023/07/28 05:20:22;;;;;;;2.15;1.95;;;13.60;99.90;;;;;;4182259;28;20049;-60
2023/07/28 05:22:42;;;;;;;1.40;1.40;;;13.70;99.90;;;;;;4181296;28;20095;-59
2023/07/28 05:25:02;;;;;;;1.50;1.35;;;13.70;99.90;;;;;;4175550;28;20063;-59
2023/07/28 05:27:22;;;;;;;1.38;1.38;;;13.60;99.90;;;;;;4178940;28;20084;-59
2023/07/28 05:29:42;;;;;;;1.20;1.10;;;13.60;99.90;;;;;;4183045;28;20239;-59
2023/07/28 05:32:03;;;;;;;1.65;1.60;;;13.60;99.90;;;;;;4173482;28;20080;-59
2023/07/28 05:34:23;;;;;;;2.88;1.40;;;13.70;99.90;;;;;;4176392;28;20048;-59
2023/07/28 05:36:44;;;;;;;1.50;1.30;;;13.70;99.90;;;;;;4180708;28;20086;-59
2023/07/28 05:39:04;;;;;;;2.60;1.55;;;13.90;99.90;;;;;;4181940;28;20052;-59
2023/07/28 05:41:24;;;;;;;1.70;1.60;;;13.90;99.90;;;;;;4176200;28;20045;-59
2023/07/28 05:43:44;;;;;;;1.73;1.63;;;14.10;99.90;;;;;;4179774;28;20128;-60
2023/07/28 05:46:04;;;;;;;2.40;1.40;;;14.20;99.90;;;;;;4179380;28;20241;-59
2023/07/28 05:48:24;;;;;;;1.30;1.30;;;14.10;99.90;;;;;;4180788;28;20048;-59
2023/07/28 05:50:44;;;;;;;1.83;1.73;;;14.10;99.90;;;;;;4180431;28;20096;-59
2023/07/28 05:53:04;;;;;;;1.40;1.00;;;14.30;99.90;;;;;;4181538;28;20213;-59
2023/07/28 05:55:24;;;;;;;1.42;1.42;;;14.40;99.90;;;;;;4181358;28;20100;-59
2023/07/28 05:57:44;;;;;;;1.30;1.20;;;14.40;99.90;;;;;;4173190;28;20060;-59
2023/07/28 06:00:09;;;;;;;1.38;1.38;;;14.40;99.90;;;;;;4178685;28;20084;-59
2023/07/28 06:02:29;;;;;;;2.00;1.80;;;14.50;99.90;;;;;;4180136;28;20272;-59
2023/07/28 06:04:49;;;;;;;2.65;1.80;;;15.00;99.90;;;;;;4178153;28;20043;-59
2023/07/28 06:07:10;;;;;;;4.32;1.90;;;15.00;99.90;;;;;;4175931;28;20099;-59
2023/07/28 06:09:30;;;;;;;2.40;1.20;;;15.20;99.90;;;;;;4178322;28;20048;-60
2023/07/28 06:11:50;;;;;;;2.33;1.30;;;15.50;99.90;;;;;;4183866;28;20051;-60
2023/07/28 06:14:10;;;;;;;3.75;2.20;;;15.60;99.90;;;;;;4180955;28;20052;-60
2023/07/28 06:16:31;;;;;;;1.30;1.20;;;15.60;99.90;;;;;;4178583;28;20405;-60
2023/07/28 06:18:51;;;;;;;3.15;1.27;;;15.70;99.90;;;;;;4180685;28;20048;-59
2023/07/28 06:21:11;;;;;;;1.55;1.08;;;15.80;99.90;;;;;;4180462;28;20051;-59
2023/07/28 06:23:30;;;;;;;1.25;1.00;;;15.70;99.90;;;;;;4179328;28;20084;-59
2023/07/28 06:25:50;;;;;;;1.55;1.27;;;15.90;99.90;;;;;;4178929;28;20317;-60
2023/07/28 06:28:11;;;;;;;1.35;1.10;;;16.00;99.90;;;;;;4178086;28;20048;-59
2023/07/28 06:30:31;;;;;;;1.02;1.00;;;16.10;99.90;;;;;;4181247;28;20091;-59
2023/07/28 06:32:51;;;;;;;1.10;1.10;;;15.90;99.90;;;;;;4176327;28;20056;-59
2023/07/28 06:35:11;;;;;;;2.83;1.27;;;16.00;99.90;;;;;;4181724;28;20068;-59
2023/07/28 06:37:32;;;;;;;1.08;1.00;;;16.00;99.90;;;;;;4177551;28;20081;-59
2023/07/28 06:39:51;;;;;;;2.97;1.10;;;16.10;99.90;;;;;;4178446;28;20091;-60
2023/07/28 06:42:11;;;;;;;3.35;1.23;;;16.10;99.90;;;;;;4178498;28;20056;-60
2023/07/28 06:44:31;;;;;;;1.55;1.00;;;16.00;99.90;;;;;;4180821;28;20103;-60
2023/07/28 06:46:51;;;;;;;1.60;0.90;;;16.20;99.90;;;;;;4179618;28;20044;-60
2023/07/28 06:49:11;;;;;;;4.43;1.00;;;16.40;99.90;;;;;;4179263;28;20124;-59
2023/07/28 06:51:30;;;;;;;1.40;0.90;;;16.60;99.90;;;;;;4180271;28;20047;-59
2023/07/28 06:53:51;;;;;;;1.83;1.05;;;16.60;99.90;;;;;;4183729;28;20048;-60
2023/07/28 06:56:11;;;;;;;2.55;0.90;;;17.00;99.90;;;;;;4174767;28;20363;-60
2023/07/28 06:58:31;;;;;;;2.35;1.10;;;17.20;99.90;;;;;;4179622;28;20087;-59
2023/07/28 07:00:51;;;;;;;1.48;0.95;;;17.40;99.90;;;;;;4180482;28;20079;-60
2023/07/28 07:03:11;;;;;;;1.58;0.90;;;17.60;99.90;;;;;;4184432;28;20067;-59
2023/07/28 07:05:32;;;;;;;1.58;1.00;;;17.80;99.90;;;;;;4175331;28;20235;-60
2023/07/28 07:07:52;;;;;;;1.05;0.90;;;17.90;99.90;;;;;;4178654;28;20100;-60
2023/07/28 07:10:12;;;;;;;1.00;1.00;;;18.00;99.90;;;;;;4182157;28;20056;-60
2023/07/28 07:12:32;;;;;;;1.33;0.90;;;18.30;99.90;;;;;;4176598;28;20082;-59
2023/07/28 07:14:52;;;;;;;1.70;0.93;;;18.70;99.90;;;;;;4171755;28;20080;-60
2023/07/28 07:17:12;;;;;;;1.88;0.90;;;19.00;99.90;;;;;;4180668;28;20232;-60
2023/07/28 07:19:32;;;;;;;2.20;1.05;;;18.90;99.90;;;;;;4179657;28;20074;-60
2023/07/28 07:21:53;;;;;;;3.00;0.90;;;19.10;99.90;;;;;;4180285;28;20044;-59
2023/07/28 07:24:13;;;;;;;0.90;0.90;;;18.90;99.90;;;;;;4178803;28;20080;-59
2023/07/28 07:26:33;;;;;;;1.23;1.13;;;19.00;99.90;;;;;;4182074;28;20048;-60
2023/07/28 07:28:53;;;;;;;0.90;0.90;;;19.10;99.90;;;;;;4177168;28;20048;-60
2023/07/28 07:31:17;;;;;;;1.85;0.85;;;19.20;99.90;;;;;;4176403;28;20044;-60
2023/07/28 07:33:37;;;;;;;0.95;0.80;;;19.40;99.90;;;;;;4179677;28;20047;-60
2023/07/28 07:35:57;;;;;;;2.47;1.00;;;19.40;99.90;;;;;;4184875;28;20043;-60
2023/07/28 07:38:17;;;;;;;2.70;0.90;;;19.40;99.90;;;;;;4177343;28;20051;-60
2023/07/28 07:40:38;;;;;;;1.00;1.00;;;19.20;99.90;;;;;;4177914;28;20375;-59
2023/07/28 07:42:59;;;;;;;1.00;0.90;;;19.20;99.90;;;;;;4178756;28;20048;-59
2023/07/28 07:45:20;;;;;;;0.82;0.82;;;19.30;99.90;;;;;;4180405;28;20091;-59
2023/07/28 07:47:41;;;;;;;2.28;1.15;;;19.40;99.90;;;;;;4178963;28;20267;-59
2023/07/28 07:50:01;;;;;;;1.05;0.90;;;19.40;99.90;;;;;;4178268;28;20052;-60
2023/07/28 07:52:20;;;;;;;2.67;0.90;;;19.40;99.90;;;;;;4178135;28;20068;-59
2023/07/28 07:54:41;;;;;;;1.23;1.23;;;19.50;99.90;;;;;;4177107;28;20355;-59
2023/07/28 07:57:01;;;;;;;2.40;0.80;;;19.60;99.90;;;;;;4175250;28;20101;-60
2023/07/28 07:59:21;;;;;;;1.98;0.80;;;19.50;99.90;;;;;;4181403;28;20391;-59
2023/07/28 08:01:40;;;;;;;2.15;0.80;;;19.50;99.90;;;;;;4179785;28;20080;-60
2023/07/28 08:04:00;;;;;;;2.67;0.90;;;19.40;99.90;;;;;;4180772;28;20383;-59
2023/07/28 08:06:20;;;;;;;1.10;1.10;;;19.40;99.90;;;;;;4181084;28;20053;-59
2023/07/28 08:08:41;;;;;;;3.72;1.00;;;19.50;99.90;;;;;;4179522;28;20103;-60
2023/07/28 08:11:03;;;;;;;2.25;0.93;;;19.40;99.90;;;;;;4182431;28;20090;-59
2023/07/28 08:13:25;;;;;;;1.30;1.10;;;19.50;99.90;;;;;;4182241;28;20105;-60
2023/07/28 08:15:46;;;;;;;0.90;0.90;;;19.40;99.90;;;;;;4182604;28;20044;-60
2023/07/28 08:18:06;;;;;;;1.70;1.00;;;19.30;99.90;;;;;;4185640;28;20248;-60
2023/07/28 08:20:26;;;;;;;1.30;0.88;;;19.30;99.90;;;;;;4178776;28;20236;-60
2023/07/28 08:22:46;;;;;;;1.33;1.13;;;19.20;99.90;;;;;;4181889;28;20371;-60
2023/07/28 08:25:06;;;;;;;2.03;1.10;;;19.20;99.90;;;;;;4182865;28;20531;-60
2023/07/28 08:27:26;;;;;;;2.28;0.90;;;19.20;99.90;;;;;;4182135;28;20091;-60
2023/07/28 08:29:46;;;;;;;1.33;0.90;;;19.20;99.90;;;;;;4179410;28;20075;-60
2023/07/28 08:32:07;;;;;;;2.35;0.90;;;19.40;99.90;;;;;;4182010;28;20059;-59
2023/07/28 08:34:27;;;;;;;2.78;1.58;;;19.40;99.90;;;;;;4186567;28;20091;-60
2023/07/28 08:36:47;;;;;;;2.10;0.90;;;19.50;99.90;;;;;;4176509;28;20051;-60
2023/07/28 08:39:07;;;;;;;1.80;0.98;;;19.60;99.90;;;;;;4181476;28;20045;-60
2023/07/28 08:41:26;;;;;;;1.10;0.82;;;19.80;99.90;;;;;;4181372;28;20418;-60
2023/07/28 08:43:46;;;;;;;1.80;0.90;;;20.00;99.90;;;;;;4168296;28;20049;-59
2023/07/28 08:46:06;;;;;;;1.00;0.88;;;20.10;99.90;;;;;;4182330;28;20053;-59
2023/07/28 08:48:26;;;;;;;2.53;0.95;;;20.20;99.90;;;;;;4181336;28;20367;-59
2023/07/28 08:50:46;;;;;;;2.90;1.20;;;20.40;99.90;;;;;;4169502;28;20056;-59
2023/07/28 08:53:06;;;;;;;4.43;0.90;;;20.30;99.90;;;;;;4180338;28;20085;-59
2023/07/28 08:55:27;;;;;;;1.00;1.00;;;20.40;99.90;;;;;;4174027;28;20048;-59
2023/07/28 08:57:48;;;;;;;2.78;1.27;;;20.60;99.90;;;;;;4180059;28;20148;-60
2023/07/28 09:00:13;;;;;;;1.10;0.80;;;20.70;99.90;;;;;;4169641;28;20044;-60
2023/07/28 09:02:32;;;;;;;0.93;0.80;;;20.80;99.90;;;;;;4178408;28;20382;-60
2023/07/28 09:04:53;;;;;;;2.78;1.00;;;20.90;99.90;;;;;;4179856;28;20052;-60
2023/07/28 09:07:14;;;;;;;0.88;0.80;;;20.90;99.90;;;;;;4182050;28;20359;-60
2023/07/28 09:09:36;;;;;;;2.38;1.15;;;20.90;99.90;;;;;;4180638;28;20147;-60
2023/07/28 09:11:56;;;;;;;1.75;0.80;;;21.10;99.90;;;;;;4180732;28;20044;-60
2023/07/28 09:14:17;;;;;;;8.80;1.17;;;21.20;99.90;;;;;;4181096;28;20052;-60
2023/07/28 09:16:37;;;;;;;1.60;1.10;;;21.40;99.90;;;;;;4181168;28;20051;-60
2023/07/28 09:19:08;;;;;;;2.80;0.80;;;21.80;99.90;;;;;;4179711;28;20109;-60
2023/07/28 09:21:27;;;;;;;1.70;0.90;;;22.10;99.90;;;;;;4180202;28;20044;-60
2023/07/28 09:23:48;;;;;;;2.60;1.50;;;22.00;99.90;;;;;;4181924;28;20059;-60
2023/07/28 09:26:09;;;;;;;2.80;0.90;;;21.90;99.90;;;;;;4181826;28;20048;-60
2023/07/28 09:28:40;;;;;;;1.02;0.82;;;22.00;99.90;;;;;;4178638;28;20109;-60
2023/07/28 09:31:04;;;;;;;2.00;1.33;;;22.20;99.90;;;;;;4181897;28;20398;-60
2023/07/28 09:33:33;;;;;;;1.60;0.82;;;22.50;99.90;;;;;;4180149;28;20072;-60
2023/07/28 09:35:52;;;;;;;2.38;0.90;;;22.80;99.90;;;;;;4179636;28;20047;-60
2023/07/28 09:38:14;;;;;;;2.90;0.90;;;23.00;99.90;;;;;;4179946;28;20120;-60
2023/07/28 09:40:34;;;;;;;2.50;0.80;;;23.20;99.90;;;;;;4180741;28;20075;-60
2023/07/28 09:42:54;;;;;;;1.83;0.80;;;23.50;99.90;;;;;;4180524;28;20344;-60
2023/07/28 09:45:19;;;;;;;1.38;0.73;;;23.40;99.90;;;;;;4178473;28;20067;-60
2023/07/28 09:48:00;;;;;;;2.08;0.85;;;23.50;99.90;;;;;;4181480;28;20071;-60
2023/07/28 09:50:23;;;;;;;4.65;0.80;;;23.60;99.90;;;;;;4179157;28;20084;-60
2023/07/28 09:52:49;;;;;;;2.53;0.80;;;23.60;99.90;;;;;;4176273;28;20049;-60
2023/07/28 09:55:13;;;;;;;3.20;0.80;;;24.00;99.90;;;;;;4179462;28;20040;-60
2023/07/28 09:57:42;;;;;;;2.65;1.20;;;24.40;99.90;;;;;;4179828;28;20056;-60
2023/07/28 10:00:04;;;;;;;1.98;0.88;;;24.40;99.00;;;;;;4179182;28;20079;-59
2023/07/28 10:02:24;;;;;;;1.27;0.70;;;24.40;99.90;;;;;;4170053;28;20075;-59
2023/07/28 10:04:44;;;;;;;1.92;0.80;;;24.80;98.60;;;;;;4181894;28;20055;-59
2023/07/28 10:07:06;;;;;;;2.45;0.90;;;25.00;99.30;;;;;;4183720;28;20092;-59
2023/07/28 10:09:27;;;;;;;1.85;0.73;;;25.10;99.40;;;;;;4180593;28;20103;-59
2023/07/28 10:11:48;;;;;;;4.63;0.82;;;25.30;98.30;;;;;;4180744;28;20056;-60
2023/07/28 10:14:10;;;;;;;2.35;0.75;;;25.70;98.20;;;;;;4180291;28;20063;-59
2023/07/28 10:16:41;;;;;;;1.38;0.70;;;26.30;97.40;;;;;;4173049;28;20044;-59
2023/07/28 10:19:01;;;;;;;0.70;0.65;;;26.70;97.60;;;;;;4177564;28;20057;-59
2023/07/28 10:21:21;;;;;;;2.13;0.70;;;26.90;96.70;;;;;;4172873;28;20109;-59
2023/07/28 10:23:41;;;;;;;1.77;1.00;;;26.90;95.00;;;;;;4179762;28;20374;-59
2023/07/28 10:26:04;;;;;;;4.07;0.70;;;26.80;95.00;;;;;;4176303;28;20059;-59
2023/07/28 10:28:40;;;;;;;1.50;0.60;;;26.70;94.60;;;;;;4180434;28;20052;-59
2023/07/28 10:31:02;;;;;;;4.13;0.70;;;26.20;95.20;;;;;;4181712;28;20044;-59
2023/07/28 10:33:34;;;;;;;1.10;0.95;;;26.00;95.00;;;;;;4178601;28;20072;-59
2023/07/28 10:35:55;;;;;;;1.30;0.68;;;26.30;96.50;;;;;;4180190;28;20048;-59
2023/07/28 10:38:33;;;;;;;1.67;0.70;;;26.50;95.10;;;;;;4180602;28;20117;-59
2023/07/28 10:41:09;;;;;;;1.92;1.02;;;26.20;94.50;;;;;;4180870;28;20112;-60
2023/07/28 10:43:29;;;;;;;2.13;0.70;;;26.30;95.50;;;;;;4179132;28;20091;-59
2023/07/28 10:45:48;;;;;;;0.70;0.68;;;26.80;95.00;;;;;;4179298;28;20366;-60
2023/07/28 10:48:08;;;;;;;1.35;0.80;;;27.10;94.90;;;;;;4179000;28;20044;-59
2023/07/28 10:50:32;;;;;;;0.77;0.60;;;27.00;94.20;;;;;;4176229;28;20048;-59
2023/07/28 10:52:52;;;;;;;3.28;0.70;;;27.50;94.50;;;;;;4176193;28;20048;-60
2023/07/28 10:55:17;;;;;;;2.42;0.60;;;28.00;93.90;;;;;;4181313;28;20407;-59
2023/07/28 10:57:36;;;;;;;0.50;0.50;;;27.70;93.70;;;;;;4180014;28;20056;-59
2023/07/28 11:00:00;;;;;;;0.98;0.60;;;27.90;93.10;;;;;;4177805;28;20103;-60
2023/07/28 11:02:20;;;;;;;2.45;0.60;;;27.40;93.20;;;;;;4179297;28;20048;-59
2023/07/28 11:04:46;;;;;;;0.50;0.50;;;27.60;94.10;;;;;;4180178;28;20051;-59
2023/07/28 11:07:07;;;;;;;0.60;0.60;;;27.60;94.30;;;;;;4179913;28;20080;-59
2023/07/28 11:09:27;;;;;;;0.80;0.50;;;27.30;92.20;;;;;;4180009;28;20048;-59
2023/07/28 11:11:47;;;;;;;1.58;0.50;;;27.30;91.90;;;;;;4179999;28;20363;-59
2023/07/28 11:14:08;;;;;;;0.60;0.60;;;27.70;92.00;;;;;;4184393;28;20055;-59
2023/07/28 11:16:30;;;;;;;3.55;0.80;;;27.70;92.80;;;;;;4174793;28;20052;-59
2023/07/28 11:18:49;;;;;;;0.63;0.63;;;27.80;92.60;;;;;;4179671;28;20252;-59
2023/07/28 11:21:09;;;;;;;1.77;0.60;;;27.70;92.80;;;;;;4179641;28;20423;-59
2023/07/28 11:23:29;;;;;;;1.58;0.60;;;27.70;90.40;;;;;;4176888;28;20044;-59
2023/07/28 11:25:50;;;;;;;1.95;0.50;;;28.10;87.10;;;;;;4178460;28;20052;-59
2023/07/28 11:28:10;;;;;;;0.55;0.55;;;27.80;85.60;;;;;;4180605;28;20402;-59
2023/07/28 11:30:31;;;;;;;0.80;0.52;;;27.50;85.20;;;;;;4184855;28;20047;-59
2023/07/28 11:32:53;;;;;;;0.70;0.60;;;28.10;88.70;;;;;;4177151;28;20096;-59
2023/07/28 11:35:15;;;;;;;0.40;0.40;;;28.60;87.00;;;;;;4181205;28;20088;-60
2023/07/28 11:37:36;;;;;;;9.18;0.50;;;29.10;88.40;;;;;;4183020;28;20069;-59
2023/07/28 11:39:57;;;;;;;1.48;0.50;;;29.00;86.40;;;;;;4184343;28;20053;-60
2023/07/28 11:42:18;;;;;;;0.47;0.43;;;28.80;85.10;;;;;;4182353;28;20235;-60
2023/07/28 11:44:38;;;;;;;3.10;0.45;;;29.20;83.50;;;;;;4180911;28;20398;-59
2023/07/28 11:46:58;;;;;;;0.50;0.50;;;28.70;79.60;;;;;;4181937;28;20248;-59
2023/07/28 11:49:23;;;;;;;2.53;0.50;;;29.20;84.30;;;;;;4181064;28;20375;-60
2023/07/28 11:51:46;;;;;;;1.05;0.50;;;28.70;82.30;;;;;;4181685;28;20044;-59
2023/07/28 11:54:07;;;;;;;0.50;0.50;;;28.60;83.70;;;;;;4184207;28;20086;-59
2023/07/28 11:56:29;;;;;;;1.13;0.40;;;29.10;83.80;;;;;;4180590;28;20052;-60
2023/07/28 11:58:52;;;;;;;1.45;0.40;;;29.00;81.90;;;;;;4181186;28;20237;-60
2023/07/28 12:01:13;;;;;;;1.67;0.57;;;29.40;79.20;;;;;;4180595;28;20268;-60
2023/07/28 12:03:33;;;;;;;0.93;0.50;;;30.30;80.60;;;;;;4182222;28;20087;-60
2023/07/28 12:06:05;;;;;;;0.55;0.40;;;30.10;78.30;;;;;;4183410;28;20397;-59
2023/07/28 12:08:37;;;;;;;1.08;0.43;;;30.10;79.90;;;;;;4182329;28;20048;-59
2023/07/28 12:10:57;;;;;;;0.50;0.45;;;30.20;80.00;;;;;;4182426;28;20060;-60
2023/07/28 12:13:22;;;;;;;0.65;0.45;;;30.20;80.30;;;;;;4179766;28;20044;-60
2023/07/28 12:15:45;;;;;;;2.47;0.40;;;30.30;82.70;;;;;;4179895;28;20067;-60